CheckWX is a tool to help pilots better visualize weather data.  It is not intended as a substitute for an official pre-flight weather briefing.

08:58:10 UTC

KMCN METAR
Middle Georgia Regional Airport
Macon, Georgia, USA
Current

21 mins ago

KMCN 220837Z AUTO 00000KT 1/4SM FG FEW004 OVC090 14/14 A3008 RMK AO2 T01440144
Observed
Feb-22 @ 08:37 UTC
Visibility
1/4 SM
Flight Rules
LIFR
Conditions
Fog
Cloud Levels
  • Few at 400' AGL
  • Overcast at 9,000' AGL
Temperature
14°C / 57°F
Dewpoint
14°C / 57°F
Humidity
100%
Altimeter
30.08" Hg
Pressure
1018.62 hPa
Previous

53 mins ago

KMCN 220805Z AUTO 00000KT 1/2SM FG SCT002 OVC090 14/14 A3009 RMK AO2 T01390139
Observed
Feb-22 @ 08:05 UTC
Visibility
1/2 SM
Flight Rules
LIFR
Conditions
Fog
Cloud Levels
  • Scattered at 200' AGL
  • Overcast at 9,000' AGL
Temperature
14°C / 57°F
Dewpoint
14°C / 57°F
Humidity
100%
Altimeter
30.09" Hg
Pressure
1018.92 hPa
Previous

1 hour ago

KMCN 220753Z AUTO 00000KT 1/4SM FG BKN002 OVC090 14/14 A3009 RMK AO2 SLP186 T01440144
Observed
Feb-22 @ 07:53 UTC
Visibility
1/4 SM
Flight Rules
LIFR
Conditions
Fog
Cloud Levels
  • Broken at 200' AGL
  • Overcast at 9,000' AGL
Temperature
14°C / 57°F
Dewpoint
14°C / 57°F
Humidity
100%
Altimeter
30.09" Hg
Pressure
1018.6 hPa